createdAt,value
2018-09-12T00:02:16.393Z,7.50
2018-09-12T00:04:43.523Z,4.03
2018-09-12T00:07:10.670Z,3.80
2018-09-12T00:09:37.782Z,3.50
2018-09-12T00:12:04.942Z,3.30
2018-09-12T00:14:32.050Z,2.87
2018-09-12T00:16:59.150Z,5.17
2018-09-12T00:19:26.302Z,7.57
2018-09-12T00:21:53.453Z,5.33
2018-09-12T00:24:20.602Z,2.70
2018-09-12T00:26:47.714Z,7.00
2018-09-12T00:29:15.612Z,5.00
2018-09-12T00:31:42.729Z,3.00
2018-09-12T00:34:09.829Z,5.97
2018-09-12T00:36:36.917Z,5.33
2018-09-12T00:39:06.923Z,5.20
2018-09-12T00:41:34.026Z,4.60
2018-09-12T00:44:01.132Z,5.20
2018-09-12T00:46:28.274Z,4.93
2018-09-12T00:48:55.421Z,2.80
2018-09-12T00:51:22.574Z,2.67
2018-09-12T00:53:49.648Z,5.37
2018-09-12T00:56:16.742Z,6.70
2018-09-12T00:58:43.863Z,5.93
2018-09-12T01:01:10.993Z,3.90
2018-09-12T01:03:38.105Z,6.33
2018-09-12T01:06:05.619Z,2.83
2018-09-12T01:08:32.717Z,5.00
2018-09-12T01:10:59.824Z,4.73
2018-09-12T01:13:27.014Z,5.10
2018-09-12T01:15:54.117Z,5.53
2018-09-12T01:18:21.204Z,4.63
2018-09-12T01:20:49.870Z,5.00
2018-09-12T01:23:16.997Z,5.40
2018-09-12T01:25:44.306Z,4.27
2018-09-12T01:28:11.439Z,4.87
2018-09-12T01:30:38.529Z,5.07
2018-09-12T01:33:05.729Z,4.10
2018-09-12T01:35:32.857Z,5.23
2018-09-12T01:37:59.978Z,5.30
2018-09-12T01:40:27.157Z,4.67
2018-09-12T01:42:54.287Z,6.43
2018-09-12T01:45:21.495Z,3.33
2018-09-12T01:47:48.616Z,7.13
2018-09-12T01:50:15.795Z,2.93
2018-09-12T01:52:42.975Z,4.13
2018-09-12T01:55:10.102Z,3.20
2018-09-12T01:57:37.215Z,4.87
2018-09-12T02:00:04.393Z,4.40
2018-09-12T02:02:31.506Z,5.43
2018-09-12T02:04:58.634Z,8.17
2018-09-12T02:07:25.798Z,5.77
2018-09-12T02:09:52.953Z,3.13
2018-09-12T02:12:20.078Z,3.60
2018-09-12T02:14:47.174Z,4.97
2018-09-12T02:17:14.258Z,5.97
2018-09-12T02:19:41.386Z,4.00
2018-09-12T02:22:08.529Z,3.73
2018-09-12T02:24:35.674Z,3.57
2018-09-12T02:27:02.808Z,4.37
2018-09-12T02:29:30.042Z,3.27
2018-09-12T02:32:03.886Z,4.53
2018-09-12T02:34:30.965Z,3.57
2018-09-12T02:36:58.065Z,3.20
2018-09-12T02:39:25.211Z,3.97
2018-09-12T02:41:52.361Z,10.70
2018-09-12T02:44:19.453Z,4.33
2018-09-12T02:46:46.558Z,6.43
2018-09-12T02:49:13.650Z,4.93
2018-09-12T02:51:40.754Z,3.10
2018-09-12T02:54:07.851Z,4.97
2018-09-12T02:56:34.972Z,4.27
2018-09-12T02:59:02.084Z,4.53
2018-09-12T03:01:29.210Z,3.13
2018-09-12T03:03:56.354Z,4.27
2018-09-12T03:06:23.529Z,2.97
2018-09-12T03:08:50.644Z,4.73
2018-09-12T03:11:17.758Z,8.13
2018-09-12T03:13:44.852Z,4.20
2018-09-12T03:16:11.952Z,4.30
2018-09-12T03:18:39.053Z,3.47
2018-09-12T03:21:06.332Z,2.30
2018-09-12T03:23:33.302Z,7.00
2018-09-12T03:26:00.433Z,3.80
2018-09-12T03:28:27.546Z,5.37
2018-09-12T03:30:54.674Z,4.07
2018-09-12T03:33:21.796Z,3.73
2018-09-12T03:35:49.367Z,3.50
2018-09-12T03:38:16.554Z,3.03
2018-09-12T03:40:43.701Z,5.37
2018-09-12T03:43:10.884Z,4.20
2018-09-12T03:45:37.996Z,10.47
2018-09-12T03:48:05.118Z,5.57
2018-09-12T03:50:32.209Z,4.80
2018-09-12T03:52:59.327Z,5.20
2018-09-12T03:55:26.525Z,5.73
2018-09-12T03:57:53.686Z,5.43
2018-09-12T04:00:20.788Z,6.10
2018-09-12T04:02:48.020Z,6.67
2018-09-12T04:05:15.166Z,5.10
2018-09-12T04:07:42.287Z,4.63
2018-09-12T04:10:09.385Z,5.00
2018-09-12T04:12:36.489Z,3.00
2018-09-12T04:15:03.875Z,3.57
2018-09-12T04:17:33.126Z,4.97
2018-09-12T04:20:00.574Z,4.20
2018-09-12T04:22:27.694Z,4.57
2018-09-12T04:24:54.844Z,4.70
2018-09-12T04:27:22.404Z,7.77
2018-09-12T04:29:49.543Z,3.53
2018-09-12T04:32:16.823Z,8.07
2018-09-12T04:34:43.962Z,5.60
2018-09-12T04:37:11.081Z,4.27
2018-09-12T04:39:38.181Z,6.37
2018-09-12T04:42:05.341Z,7.17
2018-09-12T04:44:32.481Z,4.47
2018-09-12T04:46:59.665Z,5.07
2018-09-12T04:49:26.838Z,4.53
2018-09-12T04:51:53.987Z,4.17
2018-09-12T04:54:21.959Z,4.57
2018-09-12T04:56:49.053Z,6.77
2018-09-12T04:59:16.149Z,3.87
2018-09-12T05:01:43.321Z,5.87
2018-09-12T05:04:10.441Z,5.87
2018-09-12T05:06:37.545Z,7.33
2018-09-12T05:09:06.890Z,5.43
2018-09-12T05:11:33.996Z,3.60
2018-09-12T05:14:01.122Z,6.50
2018-09-12T05:16:28.346Z,4.03
2018-09-12T05:18:55.505Z,4.10
2018-09-12T05:21:22.641Z,7.47
2018-09-12T05:23:49.742Z,3.97
2018-09-12T05:26:16.885Z,13.73
2018-09-12T05:28:44.021Z,9.83
2018-09-12T05:31:11.129Z,10.87
2018-09-12T05:33:38.244Z,6.30
2018-09-12T05:36:05.737Z,6.70
2018-09-12T05:38:32.837Z,6.27
2018-09-12T05:40:59.933Z,6.90
2018-09-12T05:43:27.067Z,5.07
2018-09-12T05:45:54.215Z,6.77
2018-09-12T05:48:21.339Z,8.43
2018-09-12T05:50:48.583Z,5.07
2018-09-12T05:53:15.684Z,3.50
2018-09-12T05:55:42.778Z,8.63
2018-09-12T05:58:09.890Z,6.97
2018-09-12T06:00:36.993Z,6.23
2018-09-12T06:03:04.158Z,7.07
2018-09-12T06:05:31.266Z,7.70
2018-09-12T06:07:58.373Z,7.93
2018-09-12T06:10:25.552Z,6.10
2018-09-12T06:12:52.721Z,7.53
2018-09-12T06:15:19.915Z,11.07
2018-09-12T06:17:47.045Z,9.70
2018-09-12T06:20:14.177Z,11.07
2018-09-12T06:22:41.321Z,9.30
2018-09-12T06:25:08.421Z,15.07
2018-09-12T06:27:35.822Z,14.03
2018-09-12T06:30:03.012Z,8.97
2018-09-12T06:32:30.146Z,11.53
2018-09-12T06:34:57.284Z,17.93
2018-09-12T06:37:24.420Z,9.90
2018-09-12T06:39:51.568Z,7.03
2018-09-12T06:42:18.705Z,17.52
2018-09-12T06:44:45.827Z,15.55
2018-09-12T06:47:12.908Z,23.47
2018-09-12T06:49:39.990Z,10.20
2018-09-12T06:52:07.149Z,8.08
2018-09-12T06:54:34.450Z,9.10
2018-09-12T06:57:01.563Z,16.60
2018-09-12T06:59:28.731Z,9.65
2018-09-12T07:01:55.873Z,13.68
2018-09-12T07:04:23.037Z,10.65
2018-09-12T07:06:50.113Z,11.00
2018-09-12T07:09:17.232Z,9.98
2018-09-12T07:11:44.337Z,9.05
2018-09-12T07:14:11.453Z,16.10
2018-09-12T07:16:38.614Z,11.53
2018-09-12T07:19:05.734Z,9.85
2018-09-12T07:21:32.833Z,6.78
2018-09-12T07:23:59.973Z,8.93
2018-09-12T07:26:27.100Z,13.53
2018-09-12T07:28:54.447Z,13.00
2018-09-12T07:31:21.582Z,14.63
2018-09-12T07:33:48.698Z,14.03
2018-09-12T07:36:15.822Z,9.93
2018-09-12T07:38:42.962Z,9.73
2018-09-12T07:41:10.145Z,10.80
2018-09-12T07:43:37.261Z,9.70
2018-09-12T07:46:04.564Z,6.75
2018-09-12T07:48:31.818Z,12.33
2018-09-12T07:50:58.969Z,6.62
2018-09-12T07:53:26.118Z,10.38
2018-09-12T07:55:53.331Z,11.28
2018-09-12T07:58:20.425Z,7.55
2018-09-12T08:00:47.532Z,7.97
2018-09-12T08:03:14.747Z,9.10
2018-09-12T08:05:41.850Z,8.53
2018-09-12T08:08:08.998Z,7.28
2018-09-12T08:10:36.120Z,7.90
2018-09-12T08:13:03.239Z,10.05
2018-09-12T08:15:30.354Z,7.85
2018-09-12T08:17:57.478Z,12.25
2018-09-12T08:20:24.617Z,5.55
2018-09-12T08:22:51.728Z,9.08
2018-09-12T08:25:18.897Z,8.08
2018-09-12T08:27:46.009Z,10.98
2018-09-12T08:30:13.254Z,7.80
2018-09-12T08:32:40.353Z,10.00
2018-09-12T08:35:07.517Z,8.03
2018-09-12T08:37:34.646Z,8.50
2018-09-12T08:40:01.929Z,9.35
2018-09-12T08:42:29.223Z,5.85
2018-09-12T08:44:56.433Z,8.13
2018-09-12T08:47:23.750Z,6.25
2018-09-12T08:49:50.868Z,10.72
2018-09-12T08:52:18.003Z,6.03
2018-09-12T08:54:45.106Z,16.67
2018-09-12T08:57:12.206Z,5.62
2018-09-12T08:59:39.321Z,6.90
2018-09-12T09:02:06.416Z,6.37
2018-09-12T09:04:33.673Z,6.42
2018-09-12T09:07:00.773Z,6.12
2018-09-12T09:09:27.898Z,10.38
2018-09-12T09:11:55.205Z,6.55
2018-09-12T09:14:22.353Z,13.03
2018-09-12T09:16:49.473Z,12.43
2018-09-12T09:19:16.591Z,9.70
2018-09-12T09:21:43.699Z,15.38
2018-09-12T09:24:10.877Z,6.25
2018-09-12T09:26:38.003Z,8.70
2018-09-12T09:29:05.142Z,8.18
2018-09-12T09:31:32.271Z,6.92
2018-09-12T09:33:59.485Z,6.95
2018-09-12T09:36:26.614Z,9.08
2018-09-12T09:38:53.766Z,7.95
2018-09-12T09:41:20.998Z,4.55
2018-09-12T09:43:48.144Z,9.83
2018-09-12T09:46:15.232Z,4.53
2018-09-12T09:48:42.369Z,7.87
2018-09-12T09:51:09.501Z,4.58
2018-09-12T09:53:36.637Z,6.20
2018-09-12T09:56:03.822Z,7.40
2018-09-12T09:58:30.953Z,5.25
2018-09-12T10:01:03.913Z,3.87
2018-09-12T10:03:36.847Z,9.78
2018-09-12T10:06:09.811Z,7.47
2018-09-12T10:08:42.750Z,9.68
2018-09-12T10:11:09.861Z,8.33
2018-09-12T10:13:36.961Z,6.83
2018-09-12T10:16:04.084Z,10.85
2018-09-12T10:18:31.217Z,6.05
2018-09-12T10:20:58.374Z,5.95
2018-09-12T10:23:25.536Z,8.45
2018-09-12T10:25:53.223Z,10.65
2018-09-12T10:28:20.568Z,8.05
2018-09-12T10:30:47.700Z,8.98
2018-09-12T10:33:15.045Z,11.12
2018-09-12T10:35:42.175Z,9.43
2018-09-12T10:38:09.305Z,11.68
2018-09-12T10:40:36.440Z,8.55
2018-09-12T10:43:03.577Z,4.55
2018-09-12T10:45:30.677Z,6.75
2018-09-12T10:47:57.829Z,5.20
2018-09-12T10:50:25.033Z,7.15
2018-09-12T10:52:52.152Z,9.55
2018-09-12T10:55:19.281Z,8.13
2018-09-12T10:57:46.768Z,9.03
2018-09-12T11:00:13.978Z,11.75
2018-09-12T11:02:41.080Z,8.55
2018-09-12T11:05:08.193Z,8.60
2018-09-12T11:07:35.360Z,9.38
2018-09-12T11:10:02.497Z,14.40
2018-09-12T11:12:29.668Z,9.43
2018-09-12T11:14:56.903Z,6.53
2018-09-12T11:17:24.049Z,4.80
2018-09-12T11:19:51.148Z,6.25
2018-09-12T11:22:18.282Z,5.28
2018-09-12T11:24:45.634Z,6.42
2018-09-12T11:27:12.738Z,4.83
2018-09-12T11:29:39.876Z,15.75
2018-09-12T11:32:06.999Z,6.58
2018-09-12T11:34:34.125Z,9.05
2018-09-12T11:37:01.249Z,7.05
2018-09-12T11:39:28.402Z,11.60
2018-09-12T11:41:55.569Z,5.15
2018-09-12T11:44:22.718Z,6.95
2018-09-12T11:46:49.891Z,4.25
2018-09-12T11:49:17.097Z,5.25
2018-09-12T11:51:44.181Z,9.53
2018-09-12T11:54:11.281Z,9.90
2018-09-12T11:56:38.549Z,8.83
2018-09-12T11:59:05.665Z,8.78
2018-09-12T12:01:32.825Z,5.53
2018-09-12T12:03:59.929Z,9.33
2018-09-12T12:06:33.958Z,7.47
2018-09-12T12:09:01.109Z,11.03
2018-09-12T12:11:28.256Z,7.10
2018-09-12T12:13:55.460Z,8.50
2018-09-12T12:16:22.661Z,6.97
2018-09-12T12:18:49.800Z,8.60
2018-09-12T12:21:17.046Z,4.10
2018-09-12T12:23:44.165Z,6.50
2018-09-12T12:26:11.281Z,5.47
2018-09-12T12:28:38.414Z,9.43
2018-09-12T12:31:05.593Z,7.87
2018-09-12T12:33:32.717Z,6.92
2018-09-12T12:35:59.929Z,3.77
2018-09-12T12:38:27.066Z,8.75
2018-09-12T12:40:54.194Z,10.65
2018-09-12T12:43:21.321Z,4.30
2018-09-12T12:45:48.421Z,3.27
2018-09-12T12:48:15.533Z,7.58
2018-09-12T12:50:42.629Z,5.35
2018-09-12T12:53:09.729Z,4.15
2018-09-12T12:55:36.834Z,7.62
2018-09-12T12:58:04.092Z,12.10
2018-09-12T13:00:31.200Z,6.78
2018-09-12T13:02:58.414Z,3.50
2018-09-12T13:05:25.654Z,6.37
2018-09-12T13:07:52.819Z,2.60
2018-09-12T13:10:19.915Z,3.10
2018-09-12T13:12:47.046Z,7.30
2018-09-12T13:15:14.158Z,5.15
2018-09-12T13:17:48.079Z,7.25
2018-09-12T13:20:15.226Z,4.95
2018-09-12T13:22:42.322Z,5.00
2018-09-12T13:25:09.439Z,3.58
2018-09-12T13:27:36.606Z,8.85
2018-09-12T13:30:03.807Z,3.58
2018-09-12T13:32:30.945Z,9.83
2018-09-12T13:34:58.131Z,4.78
2018-09-12T13:37:25.302Z,1.70
2018-09-12T13:39:52.812Z,8.00
2018-09-12T13:42:19.954Z,8.83
2018-09-12T13:44:47.071Z,2.65
2018-09-12T13:47:14.198Z,3.75
2018-09-12T13:49:41.320Z,2.92
2018-09-12T13:52:08.444Z,3.05
2018-09-12T13:54:35.558Z,3.12
2018-09-12T13:57:02.692Z,4.65
2018-09-12T13:59:29.850Z,2.05
2018-09-12T14:01:57.000Z,1.57
2018-09-12T14:04:24.149Z,5.60
2018-09-12T14:06:51.327Z,2.20
2018-09-12T14:09:18.429Z,3.02
2018-09-12T14:11:45.546Z,2.77
2018-09-12T14:14:12.989Z,5.75
2018-09-12T14:16:40.102Z,2.30
2018-09-12T14:19:07.221Z,2.25
2018-09-12T14:21:34.348Z,3.72
2018-09-12T14:24:01.486Z,3.92
2018-09-12T14:26:28.688Z,4.17
2018-09-12T14:28:55.849Z,3.10
2018-09-12T14:31:23.029Z,8.90
2018-09-12T14:33:50.168Z,5.85
2018-09-12T14:36:17.326Z,4.08
2018-09-12T14:38:44.446Z,6.55
2018-09-12T14:41:11.568Z,3.10
2018-09-12T14:43:38.693Z,2.62
2018-09-12T14:46:06.434Z,4.08
2018-09-12T14:48:33.644Z,1.90
2018-09-12T14:51:00.761Z,4.65
2018-09-12T14:53:27.941Z,2.45
2018-09-12T14:55:55.170Z,3.02
2018-09-12T14:58:22.353Z,5.83
2018-09-12T15:00:52.519Z,2.92
2018-09-12T15:03:20.142Z,1.98
2018-09-12T15:05:47.242Z,2.45
2018-09-12T15:08:14.359Z,3.25
2018-09-12T15:10:41.498Z,8.65
2018-09-12T15:13:08.609Z,3.95
2018-09-12T15:15:35.720Z,2.50
2018-09-12T15:18:02.877Z,9.08
2018-09-12T15:20:29.992Z,5.95
2018-09-12T15:22:57.159Z,2.92
2018-09-12T15:25:24.335Z,5.45
2018-09-12T15:27:51.457Z,5.10
2018-09-12T15:30:18.557Z,2.50
2018-09-12T15:32:45.683Z,5.42
2018-09-12T15:35:12.794Z,4.05
2018-09-12T15:37:39.925Z,5.15
2018-09-12T15:40:07.101Z,2.98
2018-09-12T15:42:34.250Z,3.05
2018-09-12T15:45:01.353Z,2.22
2018-09-12T15:47:28.518Z,7.00
2018-09-12T15:49:55.690Z,5.15
2018-09-12T15:52:22.874Z,4.40
2018-09-12T15:54:50.035Z,4.12
2018-09-12T15:57:17.212Z,4.85
2018-09-12T15:59:44.425Z,3.30
2018-09-12T16:02:11.883Z,2.83
2018-09-12T16:04:39.022Z,5.05
2018-09-12T16:07:06.139Z,3.40
2018-09-12T16:09:33.280Z,10.53
2018-09-12T16:12:00.392Z,7.45
2018-09-12T16:14:27.545Z,6.67
2018-09-12T16:16:54.699Z,12.45
2018-09-12T16:19:21.849Z,2.83
2018-09-12T16:21:49.445Z,3.00
2018-09-12T16:24:16.609Z,3.37
2018-09-12T16:26:43.710Z,5.00
2018-09-12T16:29:10.826Z,4.78
2018-09-12T16:31:37.997Z,4.28
2018-09-12T16:34:05.370Z,4.00
2018-09-12T16:36:32.477Z,6.97
2018-09-12T16:38:59.597Z,3.95
2018-09-12T16:41:26.718Z,3.17
2018-09-12T16:43:54.118Z,3.90
2018-09-12T16:46:21.284Z,2.40
2018-09-12T16:48:48.498Z,7.58
2018-09-12T16:51:15.777Z,3.60
2018-09-12T16:53:42.885Z,4.40
2018-09-12T16:56:10.101Z,2.20
2018-09-12T16:58:37.185Z,4.28
2018-09-12T17:01:04.304Z,6.83
2018-09-12T17:03:31.450Z,10.35
2018-09-12T17:05:58.672Z,2.08
2018-09-12T17:08:25.889Z,7.72
2018-09-12T17:10:53.080Z,2.05
2018-09-12T17:13:20.222Z,3.90
2018-09-12T17:15:47.341Z,5.50
2018-09-12T17:18:14.788Z,3.95
2018-09-12T17:20:42.025Z,6.42
2018-09-12T17:23:09.148Z,3.80
2018-09-12T17:25:36.318Z,3.20
2018-09-12T17:28:03.438Z,6.33
2018-09-12T17:30:30.547Z,3.90
2018-09-12T17:32:57.806Z,4.55
2018-09-12T17:35:25.128Z,3.65
2018-09-12T17:37:52.249Z,6.47
2018-09-12T17:40:19.361Z,12.73
2018-09-12T17:42:46.470Z,7.65
2018-09-12T17:45:13.765Z,3.10
2018-09-12T17:47:40.865Z,7.40
2018-09-12T17:50:08.001Z,3.25
2018-09-12T17:52:35.109Z,3.72
2018-09-12T17:55:02.228Z,6.45
2018-09-12T17:57:29.598Z,3.52
2018-09-12T17:59:56.847Z,2.83
2018-09-12T18:02:24.077Z,6.40
2018-09-12T18:04:51.206Z,2.25
2018-09-12T18:07:18.646Z,3.85
2018-09-12T18:09:45.826Z,7.30
2018-09-12T18:12:12.940Z,4.05
2018-09-12T18:14:40.067Z,6.03
2018-09-12T18:17:07.181Z,5.97
2018-09-12T18:19:34.265Z,3.45
2018-09-12T18:22:01.530Z,3.67
2018-09-12T18:24:30.173Z,3.58
2018-09-12T18:26:57.306Z,6.47
2018-09-12T18:29:24.473Z,4.22
2018-09-12T18:31:51.592Z,3.60
2018-09-12T18:34:18.749Z,3.20
2018-09-12T18:36:45.846Z,5.17
2018-09-12T18:39:12.941Z,4.23
2018-09-12T18:41:40.074Z,7.70
2018-09-12T18:44:07.542Z,2.77
2018-09-12T18:46:34.836Z,5.63
2018-09-12T18:49:01.949Z,2.27
2018-09-12T18:51:29.166Z,6.17
2018-09-12T18:53:56.338Z,5.63
2018-09-12T18:56:30.322Z,3.17
2018-09-12T18:58:57.551Z,6.07
2018-09-12T19:01:24.757Z,2.67
2018-09-12T19:03:51.857Z,4.90
2018-09-12T19:06:18.950Z,6.17
2018-09-12T19:08:46.040Z,9.43
2018-09-12T19:11:13.185Z,5.67
2018-09-12T19:13:40.273Z,3.93
2018-09-12T19:16:07.386Z,4.93
2018-09-12T19:18:34.551Z,13.20
2018-09-12T19:21:01.672Z,4.27
2018-09-12T19:23:28.870Z,7.17
2018-09-12T19:25:56.093Z,7.80
2018-09-12T19:28:23.283Z,4.63
2018-09-12T19:30:50.386Z,3.43
2018-09-12T19:33:17.507Z,5.23
2018-09-12T19:35:44.889Z,11.37
2018-09-12T19:38:11.989Z,7.70
2018-09-12T19:40:39.087Z,5.87
2018-09-12T19:43:06.229Z,5.23
2018-09-12T19:45:33.354Z,4.83
2018-09-12T19:48:00.513Z,9.27
2018-09-12T19:50:27.642Z,6.63
2018-09-12T19:52:54.887Z,5.53
2018-09-12T19:55:22.410Z,6.43
2018-09-12T19:57:49.501Z,11.57
2018-09-12T20:00:17.943Z,14.17
2018-09-12T20:02:45.003Z,9.00
2018-09-12T20:05:12.127Z,7.77
2018-09-12T20:07:39.226Z,7.37
2018-09-12T20:10:06.375Z,11.17
2018-09-12T20:12:33.501Z,6.93
2018-09-12T20:15:00.611Z,9.90
2018-09-12T20:17:27.789Z,12.73
2018-09-12T20:19:54.995Z,8.17
2018-09-12T20:22:22.103Z,8.90
2018-09-12T20:24:49.234Z,8.53
2018-09-12T20:27:16.333Z,10.17
2018-09-12T20:29:43.744Z,9.27
2018-09-12T20:32:10.862Z,14.73
2018-09-12T20:34:37.989Z,9.43
2018-09-12T20:37:05.225Z,8.80
2018-09-12T20:39:32.354Z,15.40
2018-09-12T20:41:59.521Z,8.70
2018-09-12T20:44:26.676Z,9.83
2018-09-12T20:46:53.860Z,11.73
2018-09-12T20:49:21.002Z,10.63
2018-09-12T20:51:48.104Z,9.80
2018-09-12T20:54:15.885Z,9.70
2018-09-12T20:56:43.660Z,10.57
2018-09-12T20:59:10.921Z,10.57
2018-09-12T21:01:37.973Z,13.20
2018-09-12T21:04:05.118Z,12.97
2018-09-12T21:06:32.221Z,15.30
2018-09-12T21:08:59.324Z,9.53
2018-09-12T21:11:26.474Z,12.40
2018-09-12T21:13:53.692Z,13.73
2018-09-12T21:16:20.794Z,11.73
2018-09-12T21:18:47.898Z,13.37
2018-09-12T21:21:14.995Z,18.07
2018-09-12T21:23:42.136Z,13.40
2018-09-12T21:26:09.253Z,12.83
2018-09-12T21:28:36.361Z,14.33
2018-09-12T21:31:03.493Z,13.13
2018-09-12T21:33:30.645Z,12.70
2018-09-12T21:35:57.811Z,11.37
2018-09-12T21:38:25.000Z,11.87
2018-09-12T21:40:52.174Z,12.60
2018-09-12T21:43:19.386Z,13.23
2018-09-12T21:45:46.473Z,18.30
2018-09-12T21:48:13.562Z,13.63
2018-09-12T21:50:40.671Z,14.20
2018-09-12T21:53:07.843Z,11.70
2018-09-12T21:55:34.997Z,11.03
2018-09-12T21:58:02.136Z,10.20
2018-09-12T22:00:29.292Z,13.77
2018-09-12T22:02:56.485Z,12.70
2018-09-12T22:05:23.605Z,12.23
2018-09-12T22:07:50.902Z,10.57
2018-09-12T22:10:17.998Z,13.03
2018-09-12T22:12:45.406Z,12.77
2018-09-12T22:15:12.561Z,10.00
2018-09-12T22:17:39.673Z,15.00
2018-09-12T22:20:06.807Z,15.77
2018-09-12T22:22:33.901Z,16.73
2018-09-12T22:25:01.048Z,11.90
2018-09-12T22:27:28.218Z,14.40
2018-09-12T22:29:55.387Z,17.03
2018-09-12T22:32:22.485Z,11.93
2018-09-12T22:34:49.597Z,12.90
2018-09-12T22:37:16.710Z,12.30
2018-09-12T22:39:44.053Z,14.10
2018-09-12T22:42:11.181Z,10.23
2018-09-12T22:44:38.307Z,10.10
2018-09-12T22:47:05.457Z,11.93
2018-09-12T22:49:32.550Z,11.83
2018-09-12T22:51:59.645Z,10.77
2018-09-12T22:54:26.762Z,12.63
2018-09-12T22:56:53.906Z,11.77
2018-09-12T22:59:21.020Z,10.73
2018-09-12T23:01:48.205Z,12.73
2018-09-12T23:04:15.374Z,11.03
2018-09-12T23:06:42.481Z,10.50
2018-09-12T23:09:09.887Z,11.93
2018-09-12T23:11:37.357Z,10.07
2018-09-12T23:14:04.530Z,11.23
2018-09-12T23:16:31.677Z,12.23
2018-09-12T23:18:58.793Z,10.53
2018-09-12T23:21:25.930Z,12.03
2018-09-12T23:23:53.023Z,12.53
2018-09-12T23:26:20.169Z,11.30
2018-09-12T23:28:47.254Z,12.87
2018-09-12T23:31:14.356Z,13.53
2018-09-12T23:33:41.515Z,17.37
2018-09-12T23:36:08.730Z,11.73
2018-09-12T23:38:35.881Z,13.97
2018-09-12T23:41:02.982Z,15.70
2018-09-12T23:43:30.123Z,13.43
2018-09-12T23:45:57.222Z,19.07
2018-09-12T23:48:24.314Z,12.93
2018-09-12T23:50:51.426Z,15.63
2018-09-12T23:53:18.539Z,12.40
2018-09-12T23:55:45.665Z,15.03
2018-09-12T23:58:12.781Z,14.40
